sensor_id;sensor_type;location;lat;lon;timestamp;pressure;altitude;pressure_sealevel;temperature;humidity
62849;BME280;48941;49.516;8.286;2023-04-21T00:00:45;100108.41;;;6.52;96.71
62849;BME280;48941;49.516;8.286;2023-04-21T00:03:12;100112.31;;;6.47;97.04
62849;BME280;48941;49.516;8.286;2023-04-21T00:05:40;100116.13;;;6.43;97.22
62849;BME280;48941;49.516;8.286;2023-04-21T00:08:08;100112.72;;;6.41;97.20
62849;BME280;48941;49.516;8.286;2023-04-21T00:10:36;100112.06;;;6.37;96.77
62849;BME280;48941;49.516;8.286;2023-04-21T00:13:06;100114.19;;;6.32;96.66
62849;BME280;48941;49.516;8.286;2023-04-21T00:15:33;100112.72;;;6.28;96.97
62849;BME280;48941;49.516;8.286;2023-04-21T00:18:01;100105.09;;;6.23;97.62
62849;BME280;48941;49.516;8.286;2023-04-21T00:20:30;100111.31;;;6.22;97.37
62849;BME280;48941;49.516;8.286;2023-04-21T00:22:59;100095.66;;;6.19;97.21
62849;BME280;48941;49.516;8.286;2023-04-21T00:25:26;100095.66;;;6.19;97.69
62849;BME280;48941;49.516;8.286;2023-04-21T00:27:54;100101.69;;;6.21;98.18
62849;BME280;48941;49.516;8.286;2023-04-21T00:30:23;100093.13;;;6.17;99.10
62849;BME280;48941;49.516;8.286;2023-04-21T00:32:51;100101.06;;;6.17;99.33
62849;BME280;48941;49.516;8.286;2023-04-21T00:35:19;100096.59;;;6.18;99.99
62849;BME280;48941;49.516;8.286;2023-04-21T00:37:47;100097.34;;;6.20;100.00
62849;BME280;48941;49.516;8.286;2023-04-21T00:40:15;100090.06;;;6.24;100.00
62849;BME280;48941;49.516;8.286;2023-04-21T00:42:43;100096.09;;;6.26;100.00
62849;BME280;48941;49.516;8.286;2023-04-21T00:45:11;100100.31;;;6.28;100.00
62849;BME280;48941;49.516;8.286;2023-04-21T00:47:42;100095.03;;;6.28;100.00
62849;BME280;48941;49.516;8.286;2023-04-21T00:50:11;100098.66;;;6.27;100.00
62849;BME280;48941;49.516;8.286;2023-04-21T00:52:40;100091.31;;;6.31;100.00
62849;BME280;48941;49.516;8.286;2023-04-21T00:55:09;100092.06;;;6.33;100.00
62849;BME280;48941;49.516;8.286;2023-04-21T00:57:37;100086.69;;;6.34;100.00
62849;BME280;48941;49.516;8.286;2023-04-21T01:00:06;100091.78;;;6.37;100.00
62849;BME280;48941;49.516;8.286;2023-04-21T01:02:37;100083.63;;;6.41;100.00
62849;BME280;48941;49.516;8.286;2023-04-21T01:05:08;100085.97;;;6.45;100.00
62849;BME280;48941;49.516;8.286;2023-04-21T01:07:36;100091.13;;;6.47;100.00
62849;BME280;48941;49.516;8.286;2023-04-21T01:10:06;100084.06;;;6.47;100.00
62849;BME280;48941;49.516;8.286;2023-04-21T01:12:41;100091.03;;;6.48;100.00
62849;BME280;48941;49.516;8.286;2023-04-21T01:15:10;100094.44;;;6.50;100.00
62849;BME280;48941;49.516;8.286;2023-04-21T01:17:37;100085.66;;;6.50;100.00
62849;BME280;48941;49.516;8.286;2023-04-21T01:20:11;100089.03;;;6.52;100.00
62849;BME280;48941;49.516;8.286;2023-04-21T01:22:41;100085.44;;;6.53;100.00
62849;BME280;48941;49.516;8.286;2023-04-21T01:25:10;100089.03;;;6.52;100.00
62849;BME280;48941;49.516;8.286;2023-04-21T01:27:37;100085.66;;;6.50;100.00
62849;BME280;48941;49.516;8.286;2023-04-21T01:30:06;100086.81;;;6.46;100.00
62849;BME280;48941;49.516;8.286;2023-04-21T01:32:35;100088.06;;;6.40;100.00
62849;BME280;48941;49.516;8.286;2023-04-21T01:35:04;100090.63;;;6.42;100.00
62849;BME280;48941;49.516;8.286;2023-04-21T01:37:33;100086.25;;;6.41;100.00
62849;BME280;48941;49.516;8.286;2023-04-21T01:40:06;100087.22;;;6.40;100.00
62849;BME280;48941;49.516;8.286;2023-04-21T01:42:36;100085.53;;;6.38;100.00
62849;BME280;48941;49.516;8.286;2023-04-21T01:45:05;100085.53;;;6.38;100.00
62849;BME280;48941;49.516;8.286;2023-04-21T01:47:33;100083.94;;;6.36;100.00
62849;BME280;48941;49.516;8.286;2023-04-21T01:50:01;100083.94;;;6.36;100.00
62849;BME280;48941;49.516;8.286;2023-04-21T01:52:29;100085.75;;;6.35;100.00
62849;BME280;48941;49.516;8.286;2023-04-21T01:54:57;100088.25;;;6.37;100.00
62849;BME280;48941;49.516;8.286;2023-04-21T01:57:26;100084.69;;;6.38;100.00
62849;BME280;48941;49.516;8.286;2023-04-21T01:59:54;100085.44;;;6.40;100.00
62849;BME280;48941;49.516;8.286;2023-04-21T02:02:23;100085.44;;;6.40;100.00
62849;BME280;48941;49.516;8.286;2023-04-21T02:04:50;100085.34;;;6.42;100.00
62849;BME280;48941;49.516;8.286;2023-04-21T02:07:18;100087.97;;;6.42;100.00
62849;BME280;48941;49.516;8.286;2023-04-21T02:09:46;100083.53;;;6.42;100.00
62849;BME280;48941;49.516;8.286;2023-04-21T02:12:14;100084.28;;;6.44;100.00
62849;BME280;48941;49.516;8.286;2023-04-21T02:14:43;100097.31;;;6.47;100.00
62849;BME280;48941;49.516;8.286;2023-04-21T02:17:12;100084.81;;;6.49;100.00
62849;BME280;48941;49.516;8.286;2023-04-21T02:19:40;100096.34;;;6.48;100.00
62849;BME280;48941;49.516;8.286;2023-04-21T02:22:08;100102.38;;;6.50;100.00
62849;BME280;48941;49.516;8.286;2023-04-21T02:24:38;100094.34;;;6.52;100.00
62849;BME280;48941;49.516;8.286;2023-04-21T02:27:06;100097.91;;;6.51;100.00
62849;BME280;48941;49.516;8.286;2023-04-21T02:29:33;100091.03;;;6.48;100.00
62849;BME280;48941;49.516;8.286;2023-04-21T02:32:02;100093.69;;;6.48;100.00
62849;BME280;48941;49.516;8.286;2023-04-21T02:34:50;100094.66;;;6.47;100.00
62849;BME280;48941;49.516;8.286;2023-04-21T02:37:17;100094.75;;;6.46;100.00
62849;BME280;48941;49.516;8.286;2023-04-21T02:39:45;100098.25;;;6.46;100.00
62849;BME280;48941;49.516;8.286;2023-04-21T02:42:13;100095.50;;;6.48;100.00
62849;BME280;48941;49.516;8.286;2023-04-21T02:44:41;100093.16;;;6.43;100.00
62849;BME280;48941;49.516;8.286;2023-04-21T02:47:10;100100.25;;;6.43;100.00
62849;BME280;48941;49.516;8.286;2023-04-21T02:49:41;100100.38;;;6.41;100.00
62849;BME280;48941;49.516;8.286;2023-04-21T02:52:09;100104.03;;;6.38;100.00
62849;BME280;48941;49.516;8.286;2023-04-21T02:54:37;100096.84;;;6.41;100.00
62849;BME280;48941;49.516;8.286;2023-04-21T02:57:04;100102.16;;;6.41;100.00
62849;BME280;48941;49.516;8.286;2023-04-21T02:59:32;100109.13;;;6.42;100.00
62849;BME280;48941;49.516;8.286;2023-04-21T03:02:00;100115.38;;;6.41;100.00
62849;BME280;48941;49.516;8.286;2023-04-21T03:04:29;100114.63;;;6.38;100.00
62849;BME280;48941;49.516;8.286;2023-04-21T03:06:59;100119.81;;;6.40;100.00
62849;BME280;48941;49.516;8.286;2023-04-21T03:09:27;100119.81;;;6.40;100.00
62849;BME280;48941;49.516;8.286;2023-04-21T03:11:55;100109.25;;;6.40;100.00
62849;BME280;48941;49.516;8.286;2023-04-21T03:14:23;100111.78;;;6.42;100.00
62849;BME280;48941;49.516;8.286;2023-04-21T03:16:51;100117.19;;;6.40;100.00
62849;BME280;48941;49.516;8.286;2023-04-21T03:19:18;100108.31;;;6.41;100.00
62849;BME280;48941;49.516;8.286;2023-04-21T03:21:48;100100.47;;;6.40;100.00
62849;BME280;48941;49.516;8.286;2023-04-21T03:24:16;100097.91;;;6.38;100.00
62849;BME280;48941;49.516;8.286;2023-04-21T03:26:44;100093.47;;;6.38;100.00
62849;BME280;48941;49.516;8.286;2023-04-21T03:29:12;100096.75;;;6.29;100.00
62849;BME280;48941;49.516;8.286;2023-04-21T03:31:40;100113.22;;;6.33;100.00
62849;BME280;48941;49.516;8.286;2023-04-21T03:34:08;100103.81;;;6.29;100.00
62849;BME280;48941;49.516;8.286;2023-04-21T03:36:35;100105.63;;;6.28;100.00
62849;BME280;48941;49.516;8.286;2023-04-21T03:39:04;100097.69;;;6.28;100.00
62849;BME280;48941;49.516;8.286;2023-04-21T03:41:45;100094.28;;;6.26;100.00
62849;BME280;48941;49.516;8.286;2023-04-21T03:44:13;100089.97;;;6.25;100.00
62849;BME280;48941;49.516;8.286;2023-04-21T03:46:41;100097.03;;;6.25;100.00
62849;BME280;48941;49.516;8.286;2023-04-21T03:49:09;100084.78;;;6.24;100.00
62849;BME280;48941;49.516;8.286;2023-04-21T03:51:36;100089.09;;;6.25;100.00
62849;BME280;48941;49.516;8.286;2023-04-21T03:54:05;100087.41;;;6.24;100.00
62849;BME280;48941;49.516;8.286;2023-04-21T03:56:33;100088.34;;;6.23;100.00
62849;BME280;48941;49.516;8.286;2023-04-21T03:59:01;100083.06;;;6.23;100.00
62849;BME280;48941;49.516;8.286;2023-04-21T04:01:29;100080.41;;;6.23;100.00
62849;BME280;48941;49.516;8.286;2023-04-21T04:03:56;100088.47;;;6.21;100.00
62849;BME280;48941;49.516;8.286;2023-04-21T04:06:24;100089.59;;;6.17;100.00
62849;BME280;48941;49.516;8.286;2023-04-21T04:08:53;100087.91;;;6.16;100.00
62849;BME280;48941;49.516;8.286;2023-04-21T04:11:23;100093.13;;;6.17;100.00
62849;BME280;48941;49.516;8.286;2023-04-21T04:13:50;100082.53;;;6.17;100.00
62849;BME280;48941;49.516;8.286;2023-04-21T04:16:18;100080.53;;;6.21;100.00
62849;BME280;48941;49.516;8.286;2023-04-21T04:18:46;100083.06;;;6.23;100.00
62849;BME280;48941;49.516;8.286;2023-04-21T04:21:13;100088.47;;;6.21;100.00
62849;BME280;48941;49.516;8.286;2023-04-21T04:23:41;100090.38;;;6.19;100.00
62849;BME280;48941;49.516;8.286;2023-04-21T04:26:09;100080.53;;;6.21;100.00
62849;BME280;48941;49.516;8.286;2023-04-21T04:28:39;100084.88;;;6.22;100.00
62849;BME280;48941;49.516;8.286;2023-04-21T04:31:06;100082.44;;;6.19;100.00
62849;BME280;48941;49.516;8.286;2023-04-21T04:33:34;100074.59;;;6.17;100.00
62849;BME280;48941;49.516;8.286;2023-04-21T04:36:03;100073.75;;;6.17;100.00
62849;BME280;48941;49.516;8.286;2023-04-21T04:38:30;100079.25;;;6.14;100.00
62849;BME280;48941;49.516;8.286;2023-04-21T04:41:00;100081.47;;;6.07;100.00
62849;BME280;48941;49.516;8.286;2023-04-21T04:43:28;100088.44;;;6.08;100.00
62849;BME280;48941;49.516;8.286;2023-04-21T04:46:00;100092.03;;;6.07;100.00
62849;BME280;48941;49.516;8.286;2023-04-21T04:48:28;100087.59;;;6.08;100.00
62849;BME280;48941;49.516;8.286;2023-04-21T04:50:55;100088.66;;;6.05;100.00
62849;BME280;48941;49.516;8.286;2023-04-21T04:53:23;100078.16;;;6.04;100.00
62849;BME280;48941;49.516;8.286;2023-04-21T04:55:51;100085.44;;;6.00;100.00
62849;BME280;48941;49.516;8.286;2023-04-21T04:58:19;100083.75;;;5.99;100.00
62849;BME280;48941;49.516;8.286;2023-04-21T05:00:47;100096.34;;;5.95;100.00
62849;BME280;48941;49.516;8.286;2023-04-21T05:03:16;100095.56;;;5.93;100.00
62849;BME280;48941;49.516;8.286;2023-04-21T05:05:44;100106.03;;;5.95;100.00
62849;BME280;48941;49.516;8.286;2023-04-21T05:08:13;100104.41;;;5.92;100.00
62849;BME280;48941;49.516;8.286;2023-04-21T05:10:43;100104.63;;;5.89;100.00
62849;BME280;48941;49.516;8.286;2023-04-21T05:13:11;100109.06;;;5.89;100.00
62849;BME280;48941;49.516;8.286;2023-04-21T05:15:39;100106.53;;;5.87;100.00
62849;BME280;48941;49.516;8.286;2023-04-21T05:18:06;100107.03;;;5.79;100.00
62849;BME280;48941;49.516;8.286;2023-04-21T05:20:35;100101.75;;;5.79;100.00
62849;BME280;48941;49.516;8.286;2023-04-21T05:23:03;100113.34;;;5.77;100.00
62849;BME280;48941;49.516;8.286;2023-04-21T05:25:31;100127.59;;;5.74;100.00
62849;BME280;48941;49.516;8.286;2023-04-21T05:27:59;100124.44;;;5.69;100.00
62849;BME280;48941;49.516;8.286;2023-04-21T05:30:26;100115.94;;;5.64;100.00
62849;BME280;48941;49.516;8.286;2023-04-21T05:32:54;100113.19;;;5.66;100.00
62849;BME280;48941;49.516;8.286;2023-04-21T05:35:22;100121.03;;;5.67;100.00
62849;BME280;48941;49.516;8.286;2023-04-21T05:37:51;100119.53;;;5.63;100.00
62849;BME280;48941;49.516;8.286;2023-04-21T05:40:19;100115.75;;;5.67;100.00
62849;BME280;48941;49.516;8.286;2023-04-21T05:42:47;100121.78;;;5.69;100.00
62849;BME280;48941;49.516;8.286;2023-04-21T05:45:14;100126.00;;;5.72;100.00
62849;BME280;48941;49.516;8.286;2023-04-21T05:47:42;100119.59;;;5.76;100.00
62849;BME280;48941;49.516;8.286;2023-04-21T05:50:10;100114.47;;;5.73;100.00
62849;BME280;48941;49.516;8.286;2023-04-21T05:52:38;100127.41;;;5.77;100.00
62849;BME280;48941;49.516;8.286;2023-04-21T05:55:07;100124.66;;;5.79;100.00
62849;BME280;48941;49.516;8.286;2023-04-21T05:57:35;100134.66;;;5.88;100.00
62849;BME280;48941;49.516;8.286;2023-04-21T06:00:04;100129.66;;;5.84;100.00
62849;BME280;48941;49.516;8.286;2023-04-21T06:02:32;100139.94;;;5.88;100.00
62849;BME280;48941;49.516;8.286;2023-04-21T06:05:00;100128.53;;;5.88;100.00
62849;BME280;48941;49.516;8.286;2023-04-21T06:07:28;100130.19;;;5.89;100.00
62849;BME280;48941;49.516;8.286;2023-04-21T06:09:56;100128.44;;;5.89;100.00
62849;BME280;48941;49.516;8.286;2023-04-21T06:12:25;100127.56;;;5.89;100.00
62849;BME280;48941;49.516;8.286;2023-04-21T06:14:53;100125.03;;;5.87;100.00
62849;BME280;48941;49.516;8.286;2023-04-21T06:17:23;100125.97;;;5.86;100.00
62849;BME280;48941;49.516;8.286;2023-04-21T06:19:51;100134.75;;;5.87;100.00
62849;BME280;48941;49.516;8.286;2023-04-21T06:22:19;100128.69;;;5.85;100.00
62849;BME280;48941;49.516;8.286;2023-04-21T06:24:47;100129.25;;;5.90;100.00
62849;BME280;48941;49.516;8.286;2023-04-21T06:27:15;100139.41;;;5.83;100.00
62849;BME280;48941;49.516;8.286;2023-04-21T06:29:44;100145.44;;;5.85;100.00
62849;BME280;48941;49.516;8.286;2023-04-21T06:32:12;100142.78;;;5.85;100.00
62849;BME280;48941;49.516;8.286;2023-04-21T06:34:40;100143.81;;;5.83;100.00
62849;BME280;48941;49.516;8.286;2023-04-21T06:37:07;100147.19;;;5.85;100.00
62849;BME280;48941;49.516;8.286;2023-04-21T06:39:35;100153.06;;;5.90;100.00
62849;BME280;48941;49.516;8.286;2023-04-21T06:42:03;100156.16;;;5.96;100.00
62849;BME280;48941;49.516;8.286;2023-04-21T06:44:31;100155.03;;;6.01;100.00
62849;BME280;48941;49.516;8.286;2023-04-21T06:47:00;100161.81;;;6.05;100.00
62849;BME280;48941;49.516;8.286;2023-04-21T06:49:27;100146.41;;;6.11;100.00
62849;BME280;48941;49.516;8.286;2023-04-21T06:51:55;100162.28;;;6.11;100.00
62849;BME280;48941;49.516;8.286;2023-04-21T06:54:23;100152.63;;;6.10;100.00
62849;BME280;48941;49.516;8.286;2023-04-21T06:56:51;100158.13;;;6.07;100.00
62849;BME280;48941;49.516;8.286;2023-04-21T06:59:18;100153.34;;;6.00;100.00
62849;BME280;48941;49.516;8.286;2023-04-21T07:01:46;100159.91;;;6.07;100.00
62849;BME280;48941;49.516;8.286;2023-04-21T07:04:19;100155.59;;;6.06;100.00
62849;BME280;48941;49.516;8.286;2023-04-21T07:06:47;100160.03;;;6.05;100.00
62849;BME280;48941;49.516;8.286;2023-04-21T07:09:15;100158.59;;;6.14;100.00
62849;BME280;48941;49.516;8.286;2023-04-21T07:11:44;100154.59;;;6.21;100.00
62849;BME280;48941;49.516;8.286;2023-04-21T07:14:11;100155.97;;;6.27;100.00
62849;BME280;48941;49.516;8.286;2023-04-21T07:16:39;100157.47;;;6.31;100.00
62849;BME280;48941;49.516;8.286;2023-04-21T07:19:07;100156.94;;;6.38;100.00
62849;BME280;48941;49.516;8.286;2023-04-21T07:21:37;100152.97;;;6.46;100.00
62849;BME280;48941;49.516;8.286;2023-04-21T07:24:05;100143.66;;;6.53;100.00
62849;BME280;48941;49.516;8.286;2023-04-21T07:26:33;100143.69;;;6.66;100.00
62849;BME280;48941;49.516;8.286;2023-04-21T07:29:00;100137.13;;;6.71;99.37
62849;BME280;48941;49.516;8.286;2023-04-21T07:31:28;100136.38;;;6.82;99.57
62849;BME280;48941;49.516;8.286;2023-04-21T07:33:56;100143.81;;;6.90;99.93
62849;BME280;48941;49.516;8.286;2023-04-21T07:36:24;100141.28;;;7.01;99.90
62849;BME280;48941;49.516;8.286;2023-04-21T07:38:57;100138.94;;;7.09;98.79
62849;BME280;48941;49.516;8.286;2023-04-21T07:41:26;100134.88;;;7.16;99.27
62849;BME280;48941;49.516;8.286;2023-04-21T07:43:54;100135.00;;;7.28;99.67
62849;BME280;48941;49.516;8.286;2023-04-21T07:46:22;100136.56;;;7.43;98.87
62849;BME280;48941;49.516;8.286;2023-04-21T07:48:55;100137.69;;;7.52;98.21
62849;BME280;48941;49.516;8.286;2023-04-21T07:51:24;100134.06;;;7.66;97.59
62849;BME280;48941;49.516;8.286;2023-04-21T07:53:53;100143.78;;;7.78;97.59
62849;BME280;48941;49.516;8.286;2023-04-21T07:56:22;100140.69;;;7.84;97.36
62849;BME280;48941;49.516;8.286;2023-04-21T07:58:50;100134.81;;;7.92;96.56
62849;BME280;48941;49.516;8.286;2023-04-21T08:01:18;100129.59;;;8.03;96.52
62849;BME280;48941;49.516;8.286;2023-04-21T08:03:46;100129.50;;;8.16;96.87
62849;BME280;48941;49.516;8.286;2023-04-21T08:06:14;100124.53;;;8.35;96.73
62849;BME280;48941;49.516;8.286;2023-04-21T08:08:42;100119.41;;;8.56;96.30
62849;BME280;48941;49.516;8.286;2023-04-21T08:11:10;100124.41;;;8.72;94.64
62849;BME280;48941;49.516;8.286;2023-04-21T08:13:39;100116.72;;;8.92;92.98
62849;BME280;48941;49.516;8.286;2023-04-21T08:16:07;100105.25;;;9.14;91.82
62849;BME280;48941;49.516;8.286;2023-04-21T08:18:34;100105.25;;;9.36;91.25
62849;BME280;48941;49.516;8.286;2023-04-21T08:21:03;100092.28;;;9.54;91.06
62849;BME280;48941;49.516;8.286;2023-04-21T08:23:30;100101.19;;;9.76;89.44
62849;BME280;48941;49.516;8.286;2023-04-21T08:25:59;100092.06;;;10.01;87.87
62849;BME280;48941;49.516;8.286;2023-04-21T08:28:27;100101.19;;;10.20;86.50
62849;BME280;48941;49.516;8.286;2023-04-21T08:30:56;100089.22;;;10.46;85.38
62849;BME280;48941;49.516;8.286;2023-04-21T08:33:24;100092.41;;;10.61;85.66
62849;BME280;48941;49.516;8.286;2023-04-21T08:35:52;100089.47;;;10.85;85.01
62849;BME280;48941;49.516;8.286;2023-04-21T08:38:33;100093.38;;;11.12;83.80
62849;BME280;48941;49.516;8.286;2023-04-21T08:41:02;100100.03;;;11.27;83.09
62849;BME280;48941;49.516;8.286;2023-04-21T08:43:30;100090.84;;;11.51;81.08
62849;BME280;48941;49.516;8.286;2023-04-21T08:46:00;100081.63;;;11.74;79.68
62849;BME280;48941;49.516;8.286;2023-04-21T08:48:30;100087.00;;;11.94;78.51
62849;BME280;48941;49.516;8.286;2023-04-21T08:51:00;100086.31;;;12.11;77.17
62849;BME280;48941;49.516;8.286;2023-04-21T08:53:28;100086.34;;;12.31;76.42
62849;BME280;48941;49.516;8.286;2023-04-21T08:55:56;100084.34;;;12.52;74.58
62849;BME280;48941;49.516;8.286;2023-04-21T08:58:37;100083.44;;;12.81;73.66
62849;BME280;48941;49.516;8.286;2023-04-21T09:01:06;100081.53;;;13.01;70.18
62849;BME280;48941;49.516;8.286;2023-04-21T09:03:34;100080.50;;;13.12;68.88
62849;BME280;48941;49.516;8.286;2023-04-21T09:06:04;100078.38;;;13.15;69.58
62849;BME280;48941;49.516;8.286;2023-04-21T09:08:38;100072.69;;;13.38;69.00
62849;BME280;48941;49.516;8.286;2023-04-21T09:11:12;100076.25;;;13.57;69.38
62849;BME280;48941;49.516;8.286;2023-04-21T09:13:42;100073.19;;;13.69;68.46
62849;BME280;48941;49.516;8.286;2023-04-21T09:16:20;100071.69;;;13.85;67.48
62849;BME280;48941;49.516;8.286;2023-04-21T09:18:49;100070.25;;;14.08;66.59
62849;BME280;48941;49.516;8.286;2023-04-21T09:21:18;100057.81;;;14.25;63.10
62849;BME280;48941;49.516;8.286;2023-04-21T09:23:47;100060.81;;;14.40;60.41
62849;BME280;48941;49.516;8.286;2023-04-21T09:26:16;100055.66;;;14.47;58.77
62849;BME280;48941;49.516;8.286;2023-04-21T09:28:46;100056.19;;;14.68;58.93
62849;BME280;48941;49.516;8.286;2023-04-21T09:31:15;100053.13;;;14.98;59.48
62849;BME280;48941;49.516;8.286;2023-04-21T09:33:46;100048.88;;;15.13;59.27
62849;BME280;48941;49.516;8.286;2023-04-21T09:36:27;100049.53;;;15.15;58.73
62849;BME280;48941;49.516;8.286;2023-04-21T09:38:56;100049.13;;;15.36;58.12
62849;BME280;48941;49.516;8.286;2023-04-21T09:41:44;100053.22;;;15.57;57.91
62849;BME280;48941;49.516;8.286;2023-04-21T09:44:12;100046.22;;;15.72;59.19
62849;BME280;48941;49.516;8.286;2023-04-21T09:46:41;100046.94;;;15.82;57.68
62849;BME280;48941;49.516;8.286;2023-04-21T09:49:12;100043.25;;;15.91;57.59
62849;BME280;48941;49.516;8.286;2023-04-21T09:51:43;100038.72;;;16.00;55.44
62849;BME280;48941;49.516;8.286;2023-04-21T09:54:15;100038.56;;;16.02;54.92
62849;BME280;48941;49.516;8.286;2023-04-21T09:56:58;100029.31;;;16.21;54.47
62849;BME280;48941;49.516;8.286;2023-04-21T09:59:34;100031.03;;;16.30;52.77
62849;BME280;48941;49.516;8.286;2023-04-21T10:02:04;100024.28;;;16.42;51.70
62849;BME280;48941;49.516;8.286;2023-04-21T10:04:35;100021.75;;;16.49;51.40
62849;BME280;48941;49.516;8.286;2023-04-21T10:07:05;100013.84;;;16.56;50.93
62849;BME280;48941;49.516;8.286;2023-04-21T10:09:37;100021.22;;;16.62;51.66
62849;BME280;48941;49.516;8.286;2023-04-21T10:12:08;100020.19;;;16.71;51.27
62849;BME280;48941;49.516;8.286;2023-04-21T10:14:36;100009.81;;;16.60;51.18
62849;BME280;48941;49.516;8.286;2023-04-21T10:17:05;100006.41;;;16.74;51.24
62849;BME280;48941;49.516;8.286;2023-04-21T10:19:36;100001.09;;;17.14;50.97
62849;BME280;48941;49.516;8.286;2023-04-21T10:22:06;100002.88;;;17.21;50.24
62849;BME280;48941;49.516;8.286;2023-04-21T10:24:36;100005.03;;;17.34;50.68
62849;BME280;48941;49.516;8.286;2023-04-21T10:27:08;99995.69;;;17.45;51.23
62849;BME280;48941;49.516;8.286;2023-04-21T10:29:37;99987.28;;;17.48;49.37
62849;BME280;48941;49.516;8.286;2023-04-21T10:32:31;99987.78;;;17.43;49.66
62849;BME280;48941;49.516;8.286;2023-04-21T10:35:09;99981.63;;;17.66;49.99
62849;BME280;48941;49.516;8.286;2023-04-21T10:37:39;99987.66;;;17.68;50.04
62849;BME280;48941;49.516;8.286;2023-04-21T10:40:32;99982.50;;;17.81;49.50
62849;BME280;48941;49.516;8.286;2023-04-21T10:46:31;99984.06;;;17.99;48.76
62849;BME280;48941;49.516;8.286;2023-04-21T10:49:04;99970.66;;;18.14;48.32
62849;BME280;48941;49.516;8.286;2023-04-21T10:52:01;99962.66;;;18.20;47.36
62849;BME280;48941;49.516;8.286;2023-04-21T10:54:35;99969.41;;;18.39;47.39
62849;BME280;48941;49.516;8.286;2023-04-21T10:57:09;99971.84;;;18.64;47.19
62849;BME280;48941;49.516;8.286;2023-04-21T10:59:38;99963.06;;;18.77;45.98
62849;BME280;48941;49.516;8.286;2023-04-21T11:02:06;99966.00;;;18.90;46.77
62849;BME280;48941;49.516;8.286;2023-04-21T11:04:35;99959.00;;;18.96;46.08
62849;BME280;48941;49.516;8.286;2023-04-21T11:07:09;99968.41;;;19.00;45.61
62849;BME280;48941;49.516;8.286;2023-04-21T11:09:38;99957.84;;;19.20;45.12
62849;BME280;48941;49.516;8.286;2023-04-21T11:12:07;99958.06;;;19.40;45.26
62849;BME280;48941;49.516;8.286;2023-04-21T11:14:37;99955.13;;;19.56;44.24
62849;BME280;48941;49.516;8.286;2023-04-21T11:17:10;99951.19;;;19.59;44.72
62849;BME280;48941;49.516;8.286;2023-04-21T11:19:38;99953.59;;;19.68;45.05
62849;BME280;48941;49.516;8.286;2023-04-21T11:22:07;99952.28;;;19.64;45.63
62849;BME280;48941;49.516;8.286;2023-04-21T11:24:35;99950.41;;;19.65;45.93
62849;BME280;48941;49.516;8.286;2023-04-21T11:27:07;99951.84;;;19.61;45.97
62849;BME280;48941;49.516;8.286;2023-04-21T11:29:37;99938.06;;;19.34;46.24
62849;BME280;48941;49.516;8.286;2023-04-21T11:32:06;99934.22;;;19.43;46.82
62849;BME280;48941;49.516;8.286;2023-04-21T11:34:35;99927.19;;;19.49;46.03
62849;BME280;48941;49.516;8.286;2023-04-21T11:37:06;99922.38;;;19.44;46.33
62849;BME280;48941;49.516;8.286;2023-04-21T11:39:35;99924.88;;;19.24;47.26
62849;BME280;48941;49.516;8.286;2023-04-21T11:42:06;99918.59;;;19.39;46.94
62849;BME280;48941;49.516;8.286;2023-04-21T11:44:37;99917.44;;;19.69;46.37
62849;BME280;48941;49.516;8.286;2023-04-21T11:47:12;99913.13;;;19.54;46.48
62849;BME280;48941;49.516;8.286;2023-04-21T11:49:45;99914.88;;;19.61;46.98
62849;BME280;48941;49.516;8.286;2023-04-21T11:52:24;99922.97;;;19.83;46.34
62849;BME280;48941;49.516;8.286;2023-04-21T11:54:58;99913.13;;;19.97;46.11
62849;BME280;48941;49.516;8.286;2023-04-21T11:57:26;99915.59;;;20.20;45.83
62849;BME280;48941;49.516;8.286;2023-04-21T11:59:57;99916.66;;;20.25;45.90
62849;BME280;48941;49.516;8.286;2023-04-21T12:02:27;99916.59;;;20.19;45.49
62849;BME280;48941;49.516;8.286;2023-04-21T12:04:57;99915.09;;;20.09;45.71
62849;BME280;48941;49.516;8.286;2023-04-21T12:07:27;99920.53;;;19.88;46.01
62849;BME280;48941;49.516;8.286;2023-04-21T12:09:57;99917.00;;;19.66;46.23
62849;BME280;48941;49.516;8.286;2023-04-21T12:12:25;99910.31;;;19.83;45.80
62849;BME280;48941;49.516;8.286;2023-04-21T12:14:54;99909.13;;;19.93;45.78
62849;BME280;48941;49.516;8.286;2023-04-21T12:17:24;99908.19;;;20.07;45.60
62849;BME280;48941;49.516;8.286;2023-04-21T12:19:52;99907.56;;;20.33;45.42
62849;BME280;48941;49.516;8.286;2023-04-21T12:22:20;99900.94;;;20.42;45.06
62849;BME280;48941;49.516;8.286;2023-04-21T12:24:49;99896.81;;;20.46;44.89
62849;BME280;48941;49.516;8.286;2023-04-21T12:27:19;99906.19;;;20.50;45.01
62849;BME280;48941;49.516;8.286;2023-04-21T12:29:47;99899.75;;;20.52;44.72
62849;BME280;48941;49.516;8.286;2023-04-21T12:32:15;99891.59;;;20.73;44.53
62849;BME280;48941;49.516;8.286;2023-04-21T12:34:43;99891.63;;;20.86;44.49
62849;BME280;48941;49.516;8.286;2023-04-21T12:37:10;99889.97;;;20.85;44.25
62849;BME280;48941;49.516;8.286;2023-04-21T12:39:39;99882.03;;;20.84;44.50
62849;BME280;48941;49.516;8.286;2023-04-21T12:42:07;99875.09;;;20.68;44.88
62849;BME280;48941;49.516;8.286;2023-04-21T12:44:38;99868.91;;;20.81;44.48
62849;BME280;48941;49.516;8.286;2023-04-21T12:47:06;99873.16;;;21.03;44.27
62849;BME280;48941;49.516;8.286;2023-04-21T12:49:34;99870.50;;;21.30;44.02
62849;BME280;48941;49.516;8.286;2023-04-21T12:52:02;99865.75;;;21.39;44.17
62849;BME280;48941;49.516;8.286;2023-04-21T12:54:31;99860.34;;;21.52;44.40
62849;BME280;48941;49.516;8.286;2023-04-21T12:57:01;99863.72;;;21.61;44.51
62849;BME280;48941;49.516;8.286;2023-04-21T12:59:29;99858.91;;;21.70;43.93
62849;BME280;48941;49.516;8.286;2023-04-21T13:01:58;99858.91;;;21.90;43.18
62849;BME280;48941;49.516;8.286;2023-04-21T13:04:26;99857.66;;;21.79;43.02
62849;BME280;48941;49.516;8.286;2023-04-21T13:06:55;99855.34;;;21.89;42.31